Kagoshima, Japan
Current Conditions -  °F | °C
As of 6:00 AM on Monday 22 Dec 2014 (Local Time) from RJFK Reporting Station
Snow Showers Snow Showers  
Wind Chill: 24°   Ceiling: 3000
Heat Index: 34°   Visibility: 2.5mi
Dew Point: 30°   Wind: 15mph
Humidity: 87%   Direction: 330°NNW
Pressure: 30.12"   Gusts: NA
Location:  31.59°N, 130.56°E
Report Text: RJFK 212100Z 33013KT 4000 -SHSN FEW010 SCT020 BKN030 01/M01 Q1020
Loading
Personal Weather Stations






























Interactive Weather Map New forecast layout! Learn more

10-Day Weather Forecast

Advertisements
Track Severe Weather on mobile